aviador You're here:

PAMY Decoded Metar

MEKORYUK in AK, USA
Report Time2017-08-17 00:56:00
UTC Time2017-08-17 01:58:01
Flight Rules vfr VFR
Wind290° at 07 kt
W.Decomp.*RWY 23: 4.8 kt HW 5.1 kt RCW
W.Rank290° ranks 8
Current wind is below 290° avg. (10.3)
Visibility9999 m
Phenomena:N/A
Clouds:N/A
Expected CloudBase > 2,400 ft AGL from Temp-Dew spread
CeilingNone
Temp11°C (ISA -4)
Dew Point05°C (67% RH)
AAT7.4°C
QNH999 hPa
Density Alt174 ft
Elevation43 ft
Report Wrong Elevation
Raw Report
PAMY 170056Z AUTO 29007KT 9SM CLR 11/05 A2951 RMK AO2 SLP996
T01110050 PNO $=

Extra information for PAMY:More info

Metar Taf Metar & Taf Last 4 Metars F.Rules Stats Wind Profile Meteogram Temp Stats Airport Information Weather charts Add Link Nearby VenuesMetar ALERT Operation Metar Decoded Social comments

AIRNAV info for PAMY